Wakefield, Ohio
Current Conditions -  °F | °C
As of 6:54 AM on Tuesday 21 Oct 2014 (Local Time) from KRZT Reporting Station
Overcast Overcast  
Wind Chill: 50°   Ceiling: 1600
Heat Index: 50°   Visibility: 7mi
Dew Point: 48°   Wind: 7mph
Humidity: 94%   Direction: 300°WNW
Pressure: 29.92"   Gusts: NA
Location:  38.97°N, 83.02°W
Report Text: KRZT 211054Z AUTO 30006KT 7SM BKN016 OVC028 10/09 A2992 RMK AO2
Loading
Personal Weather Stations






























Interactive Weather Map
Tropical Storm Tracking
New forecast layout! Learn more

10-Day Weather Forecast

Advertisements
Track Severe Weather on mobile